Time;durP1;ratioP1;P1;durP2;ratioP2;P2;SDS_P1;SDS_P2;PMS_P1;PMS_P2;Temp;Humidity;BMP_temperature;BMP_pressure;BME280_temperature;BME280_humidity;BME280_pressure;Samples;Min_cycle;Max_cycle;Signal;HPM_P1;HPM_P2
2022/09/11 00:02:09;;;;;;;2.72;0.80;;;16.30;99.90;;;;;;5006372;28;20055;-77
2022/09/11 00:04:36;;;;;;;2.25;0.68;;;16.30;99.90;;;;;;4998872;28;20054;-77
2022/09/11 00:07:03;;;;;;;11.70;0.90;;;16.30;99.90;;;;;;5000457;28;20053;-77
2022/09/11 00:09:29;;;;;;;2.58;0.82;;;16.30;99.90;;;;;;5001816;28;20050;-77
2022/09/11 00:11:56;;;;;;;3.33;0.90;;;16.40;99.90;;;;;;4994956;28;20456;-77
2022/09/11 00:14:27;;;;;;;2.45;0.95;;;16.30;99.90;;;;;;5000795;28;20049;-77
2022/09/11 00:16:54;;;;;;;3.50;1.00;;;16.30;99.90;;;;;;5005986;28;20074;-77
2022/09/11 00:19:21;;;;;;;2.70;0.90;;;16.20;99.90;;;;;;5003349;28;20050;-77
2022/09/11 00:21:49;;;;;;;2.63;0.70;;;16.20;99.90;;;;;;4992181;28;20474;-79
2022/09/11 00:24:16;;;;;;;1.75;0.70;;;16.20;99.90;;;;;;4991932;28;20050;-77
2022/09/11 00:26:43;;;;;;;3.20;0.90;;;16.20;99.90;;;;;;5002667;28;20062;-77
2022/09/11 00:29:10;;;;;;;6.45;0.90;;;16.20;99.90;;;;;;4996645;28;20073;-76
2022/09/11 00:31:37;;;;;;;2.95;0.98;;;16.30;99.90;;;;;;5005990;28;20452;-76
2022/09/11 00:34:05;;;;;;;2.85;0.82;;;16.20;99.90;;;;;;4997613;28;20137;-76
2022/09/11 00:36:34;;;;;;;2.47;0.60;;;16.30;99.90;;;;;;5004218;28;20046;-76
2022/09/11 00:39:01;;;;;;;9.43;0.93;;;16.30;99.90;;;;;;5000383;28;20481;-77
2022/09/11 00:41:31;;;;;;;3.40;0.90;;;16.20;99.90;;;;;;4998961;28;20050;-76
2022/09/11 00:44:01;;;;;;;2.30;0.60;;;16.30;99.90;;;;;;5012441;28;20046;-76
2022/09/11 00:46:33;;;;;;;1.80;0.60;;;16.30;99.90;;;;;;4999680;28;20440;-76
2022/09/11 00:49:03;;;;;;;2.28;0.60;;;16.30;99.90;;;;;;5006370;28;20053;-76
2022/09/11 00:51:33;;;;;;;0.85;0.63;;;16.20;99.90;;;;;;5008513;28;20049;-76
2022/09/11 00:54:03;;;;;;;1.85;0.90;;;16.30;99.90;;;;;;5008979;28;20050;-77
2022/09/11 00:56:34;;;;;;;6.00;1.10;;;16.20;99.90;;;;;;5012660;28;20053;-76
2022/09/11 00:59:03;;;;;;;4.68;0.90;;;16.20;99.90;;;;;;5013023;28;20054;-76
2022/09/11 01:01:29;;;;;;;4.75;0.70;;;16.20;99.90;;;;;;5011903;28;20054;-77
2022/09/11 01:03:56;;;;;;;4.97;1.45;;;16.10;99.90;;;;;;5000839;28;20137;-76
2022/09/11 01:06:24;;;;;;;3.40;1.00;;;16.20;99.90;;;;;;5008405;28;20504;-76
2022/09/11 01:08:51;;;;;;;5.82;1.13;;;16.20;99.90;;;;;;5000897;28;20054;-78
2022/09/11 01:11:59;;;;;;;2.22;0.93;;;16.20;99.90;;;;;;5002918;28;20042;-76
2022/09/11 01:14:46;;;;;;;2.83;0.95;;;16.20;99.90;;;;;;4983277;28;20042;-76
2022/09/11 01:17:39;;;;;;;5.38;1.00;;;16.10;99.90;;;;;;5005152;28;20050;-76
2022/09/11 01:20:27;;;;;;;3.08;1.15;;;16.10;99.90;;;;;;5005804;28;20061;-76
2022/09/11 01:23:18;;;;;;;3.50;0.85;;;16.10;99.90;;;;;;5011914;28;20045;-75
2022/09/11 01:26:20;;;;;;;3.60;0.70;;;16.10;99.90;;;;;;5003377;28;20061;-76
2022/09/11 01:29:18;;;;;;;2.70;1.02;;;16.00;99.90;;;;;;5010217;28;20050;-77
2022/09/11 01:32:20;;;;;;;4.95;0.90;;;16.00;99.90;;;;;;4983305;28;20051;-75
2022/09/11 01:35:16;;;;;;;5.22;1.38;;;16.00;99.90;;;;;;5004777;28;20052;-76
2022/09/11 01:37:53;;;;;;;7.60;1.13;;;15.90;99.90;;;;;;5019262;28;20046;-75
2022/09/11 01:40:48;;;;;;;6.18;1.25;;;16.00;99.90;;;;;;5011899;28;20065;-76
2022/09/11 01:43:21;;;;;;;2.60;0.70;;;16.00;99.90;;;;;;5002744;28;20058;-76
2022/09/11 01:45:50;;;;;;;4.70;1.05;;;16.00;99.90;;;;;;5001805;28;20061;-76
2022/09/11 01:48:22;;;;;;;10.93;2.13;;;16.10;99.90;;;;;;5005269;28;20081;-76
2022/09/11 01:50:50;;;;;;;3.75;1.00;;;16.10;99.90;;;;;;4997297;28;20042;-77
2022/09/11 01:53:20;;;;;;;2.08;1.02;;;16.10;99.90;;;;;;4999987;28;20086;-76
2022/09/11 01:56:01;;;;;;;3.35;0.90;;;16.10;99.90;;;;;;5007033;28;20050;-76
2022/09/11 01:58:29;;;;;;;;;;;16.10;99.90;;;;;;4997859;28;20391;-77
2022/09/11 02:01:22;;;;;;;2.80;0.98;;;16.10;99.90;;;;;;5006139;28;19929;-77
2022/09/11 02:03:51;;;;;;;3.58;0.75;;;16.20;99.90;;;;;;5011143;28;20500;-76
2022/09/11 02:06:25;;;;;;;3.05;0.98;;;16.20;99.90;;;;;;5003139;28;20523;-75
2022/09/11 02:09:07;;;;;;;1.55;0.80;;;16.20;99.90;;;;;;5001522;28;20061;-76
2022/09/11 02:11:39;;;;;;;4.80;1.15;;;16.20;99.90;;;;;;5005325;28;20061;-76
2022/09/11 02:14:28;;;;;;;4.00;0.85;;;16.20;99.90;;;;;;5010061;28;20053;-76
2022/09/11 02:17:15;;;;;;;2.80;0.70;;;16.20;99.90;;;;;;5006513;28;20065;-76
2022/09/11 02:19:43;;;;;;;2.05;0.90;;;16.20;99.90;;;;;;4996591;28;20420;-77
2022/09/11 02:22:09;;;;;;;1.25;0.80;;;16.20;99.90;;;;;;5007950;28;20046;-76
2022/09/11 02:24:36;;;;;;;3.03;1.05;;;16.30;99.90;;;;;;5000123;28;20062;-77
2022/09/11 02:27:10;;;;;;;3.50;0.88;;;16.20;99.90;;;;;;5003500;28;20506;-77
2022/09/11 02:29:38;;;;;;;5.18;1.13;;;16.20;99.90;;;;;;4993282;28;20057;-76
2022/09/11 02:32:05;;;;;;;5.57;1.15;;;16.20;99.90;;;;;;4993272;28;20532;-76
2022/09/11 02:34:35;;;;;;;3.03;0.80;;;16.20;99.90;;;;;;4993600;28;20057;-76
2022/09/11 02:37:07;;;;;;;7.43;1.10;;;16.20;99.90;;;;;;5011704;28;20046;-76
2022/09/11 02:39:59;;;;;;;1.92;0.77;;;16.20;99.90;;;;;;5008047;28;20116;-78
2022/09/11 02:42:34;;;;;;;3.67;1.02;;;16.20;99.90;;;;;;5010055;28;20062;-75
2022/09/11 02:45:35;;;;;;;3.95;1.00;;;16.20;99.90;;;;;;4997452;28;20526;-77
2022/09/11 02:48:24;;;;;;;2.80;0.80;;;16.20;99.90;;;;;;4994814;28;20058;-77
2022/09/11 02:50:58;;;;;;;1.92;0.82;;;16.10;99.90;;;;;;4995241;28;20432;-78
2022/09/11 02:53:41;;;;;;;4.00;0.90;;;16.10;99.90;;;;;;5003207;28;20619;-75
2022/09/11 02:56:16;;;;;;;3.28;0.63;;;16.10;99.90;;;;;;5012427;28;20429;-77
2022/09/11 02:58:59;;;;;;;8.15;1.10;;;16.10;99.90;;;;;;5002944;28;20495;-77
2022/09/11 03:01:26;;;;;;;4.07;0.93;;;16.10;99.90;;;;;;5001665;28;20060;-78
2022/09/11 03:03:53;;;;;;;2.67;1.30;;;16.10;99.90;;;;;;4993533;28;20108;-78
2022/09/11 03:06:23;;;;;;;6.30;1.17;;;16.00;99.90;;;;;;4994004;28;20077;-77
2022/09/11 03:08:50;;;;;;;3.45;0.82;;;16.00;99.90;;;;;;4997519;28;20105;-77
2022/09/11 03:11:18;;;;;;;2.90;0.90;;;16.00;99.90;;;;;;4998110;28;20148;-79
2022/09/11 03:13:45;;;;;;;3.95;1.23;;;16.00;99.90;;;;;;5006117;28;20554;-77
2022/09/11 03:16:12;;;;;;;7.47;1.15;;;16.00;99.90;;;;;;5002295;28;20053;-78
2022/09/11 03:18:39;;;;;;;4.10;1.00;;;15.90;99.90;;;;;;4997888;28;20054;-78
2022/09/11 03:21:06;;;;;;;5.63;1.52;;;15.90;99.90;;;;;;5005125;28;20046;-77
2022/09/11 03:23:33;;;;;;;3.60;1.17;;;15.90;99.90;;;;;;4996376;28;20050;-77
2022/09/11 03:25:59;;;;;;;2.88;0.80;;;15.90;99.90;;;;;;5004561;28;20100;-77
2022/09/11 03:28:26;;;;;;;7.47;1.95;;;15.90;99.90;;;;;;4999928;28;20120;-77
2022/09/11 03:30:53;;;;;;;3.97;1.00;;;15.90;99.90;;;;;;5002183;28;20061;-78
2022/09/11 03:33:19;;;;;;;5.40;1.00;;;15.90;99.90;;;;;;4992572;28;20061;-77
2022/09/11 03:35:46;;;;;;;4.07;1.30;;;15.90;99.90;;;;;;5004184;28;20046;-79
2022/09/11 03:38:14;;;;;;;2.47;0.90;;;15.90;99.90;;;;;;5002415;28;20054;-77
2022/09/11 03:40:43;;;;;;;2.10;1.00;;;15.90;99.90;;;;;;5020039;28;20061;-78
2022/09/11 03:43:11;;;;;;;6.15;1.17;;;15.90;99.90;;;;;;5009455;28;20056;-78
2022/09/11 03:45:38;;;;;;;6.03;1.42;;;15.90;99.90;;;;;;4999803;28;20527;-76
2022/09/11 03:48:05;;;;;;;3.80;1.00;;;15.80;99.90;;;;;;5001023;28;20072;-77
2022/09/11 03:50:32;;;;;;;5.30;1.27;;;15.80;99.90;;;;;;4991841;28;20069;-77
2022/09/11 03:52:59;;;;;;;2.13;0.95;;;15.80;99.90;;;;;;5002866;28;20130;-78
2022/09/11 03:55:26;;;;;;;5.53;1.83;;;15.80;99.90;;;;;;4994794;28;20050;-76
2022/09/11 03:57:52;;;;;;;4.68;1.10;;;15.70;99.90;;;;;;4999115;28;20053;-78
2022/09/11 04:00:19;;;;;;;3.17;1.35;;;15.70;99.90;;;;;;5002011;28;20050;-79
2022/09/11 04:02:46;;;;;;;3.28;0.90;;;15.60;99.90;;;;;;5001732;28;20578;-78
2022/09/11 04:05:12;;;;;;;4.53;1.25;;;15.50;99.90;;;;;;4995617;28;20046;-77
2022/09/11 04:07:40;;;;;;;3.25;1.27;;;15.40;99.90;;;;;;5005207;28;20046;-78
2022/09/11 04:10:07;;;;;;;2.17;1.10;;;15.40;99.90;;;;;;4996612;28;20050;-77
2022/09/11 04:12:34;;;;;;;3.10;1.25;;;15.30;99.90;;;;;;5003669;28;20421;-78
2022/09/11 04:15:01;;;;;;;6.15;1.55;;;15.30;99.90;;;;;;4998311;28;20073;-77
2022/09/11 04:17:30;;;;;;;3.20;1.33;;;15.20;99.90;;;;;;5001683;28;20096;-78
2022/09/11 04:19:57;;;;;;;3.10;1.20;;;15.10;99.90;;;;;;5001024;28;20050;-77
2022/09/11 04:22:24;;;;;;;5.10;1.38;;;15.10;99.90;;;;;;4997473;28;20976;-77
2022/09/11 04:24:50;;;;;;;3.85;1.40;;;15.10;99.90;;;;;;5006351;28;20529;-77
2022/09/11 04:27:17;;;;;;;4.18;1.08;;;15.00;99.90;;;;;;4997775;28;20145;-77
2022/09/11 04:29:45;;;;;;;3.70;1.40;;;15.00;99.90;;;;;;5004264;28;20053;-78
2022/09/11 04:32:12;;;;;;;5.50;1.48;;;15.00;99.90;;;;;;5007484;28;20503;-77
2022/09/11 04:34:39;;;;;;;1.92;1.25;;;15.00;99.90;;;;;;4998793;28;20815;-77
2022/09/11 04:37:06;;;;;;;4.32;1.30;;;14.90;99.90;;;;;;5004679;28;20050;-76
2022/09/11 04:39:33;;;;;;;5.07;1.60;;;14.90;99.90;;;;;;5007035;28;20061;-78
2022/09/11 04:42:01;;;;;;;4.38;1.48;;;14.90;99.90;;;;;;5007008;28;20050;-77
2022/09/11 04:44:28;;;;;;;3.05;1.50;;;14.90;99.90;;;;;;4997308;28;20427;-77
2022/09/11 04:46:55;;;;;;;5.95;1.83;;;14.90;99.90;;;;;;5000388;28;20531;-77
2022/09/11 04:49:22;;;;;;;6.25;2.03;;;14.80;99.90;;;;;;5001355;28;20145;-77
2022/09/11 04:51:49;;;;;;;5.63;1.60;;;14.90;99.90;;;;;;4994794;28;20050;-77
2022/09/11 04:54:20;;;;;;;2.22;1.38;;;14.80;99.90;;;;;;5004806;28;20655;-76
2022/09/11 04:56:47;;;;;;;3.80;1.63;;;14.80;99.90;;;;;;4996643;28;20045;-77
2022/09/11 04:59:22;;;;;;;6.68;2.58;;;14.80;99.90;;;;;;5002008;28;20056;-78
2022/09/11 05:01:50;;;;;;;3.53;1.58;;;14.80;99.90;;;;;;5003848;28;20061;-78
2022/09/11 05:04:17;;;;;;;4.80;1.40;;;14.80;99.90;;;;;;5021388;28;20051;-78
2022/09/11 05:06:49;;;;;;;5.85;1.77;;;14.80;99.90;;;;;;5001602;28;20051;-77
2022/09/11 05:09:17;;;;;;;3.40;1.63;;;14.80;99.90;;;;;;4997421;28;20065;-78
2022/09/11 05:11:43;;;;;;;6.07;1.80;;;14.80;99.90;;;;;;5002276;28;20060;-77
2022/09/11 05:14:11;;;;;;;2.42;1.27;;;14.80;99.90;;;;;;4996458;28;20046;-77
2022/09/11 05:16:38;;;;;;;7.93;1.58;;;14.70;99.90;;;;;;5004712;28;20500;-77
2022/09/11 05:19:05;;;;;;;4.53;1.30;;;14.70;99.90;;;;;;5006804;28;20046;-78
2022/09/11 05:21:32;;;;;;;8.48;2.33;;;14.70;99.90;;;;;;4991641;28;20061;-78
2022/09/11 05:24:00;;;;;;;4.65;1.73;;;14.70;99.90;;;;;;4991643;28;20409;-77
2022/09/11 05:26:30;;;;;;;6.35;1.63;;;14.60;99.90;;;;;;4993418;28;20050;-78
2022/09/11 05:28:58;;;;;;;2.70;1.38;;;14.70;99.90;;;;;;5012281;28;20046;-77
2022/09/11 05:31:27;;;;;;;1.83;1.00;;;14.70;99.90;;;;;;5005707;28;20057;-78
2022/09/11 05:33:55;;;;;;;2.45;1.52;;;14.70;99.90;;;;;;5010157;28;20129;-78
2022/09/11 05:36:22;;;;;;;4.57;1.58;;;14.60;99.90;;;;;;5010954;28;20504;-78
2022/09/11 05:38:49;;;;;;;2.78;1.20;;;14.60;99.90;;;;;;4999921;28;20057;-77
2022/09/11 05:41:16;;;;;;;5.03;1.40;;;14.60;99.90;;;;;;5012092;28;20050;-77
2022/09/11 05:43:43;;;;;;;2.85;1.40;;;14.60;99.90;;;;;;5015370;28;20050;-79
2022/09/11 05:46:12;;;;;;;3.80;1.63;;;14.60;99.90;;;;;;4999902;28;20145;-77
2022/09/11 05:48:39;;;;;;;4.70;1.50;;;14.60;99.90;;;;;;5007743;28;20079;-78
2022/09/11 05:51:14;;;;;;;10.20;2.80;;;14.70;99.90;;;;;;5011888;28;20073;-78
2022/09/11 05:53:41;;;;;;;5.15;1.50;;;14.70;99.90;;;;;;4994457;28;20078;-77
2022/09/11 05:56:20;;;;;;;2.78;1.27;;;14.80;99.90;;;;;;4994762;28;20050;-78
2022/09/11 05:58:50;;;;;;;4.40;2.00;;;14.80;99.90;;;;;;5006030;28;20046;-77
2022/09/11 06:01:19;;;;;;;2.38;1.55;;;14.90;99.90;;;;;;4998419;28;20050;-78
2022/09/11 06:03:48;;;;;;;6.72;1.60;;;14.90;99.90;;;;;;5008998;28;20435;-78
2022/09/11 06:06:16;;;;;;;4.82;1.45;;;15.00;99.90;;;;;;5000553;28;20149;-77
2022/09/11 06:08:44;;;;;;;1.77;1.10;;;15.10;99.90;;;;;;5005399;28;20427;-77
2022/09/11 06:11:13;;;;;;;5.32;1.38;;;15.10;99.90;;;;;;5010228;28;20056;-78
2022/09/11 06:13:41;;;;;;;2.50;1.30;;;15.20;99.90;;;;;;5000697;28;20104;-78
2022/09/11 06:16:10;;;;;;;2.47;1.20;;;15.20;99.90;;;;;;5006963;28;20050;-78
2022/09/11 06:18:43;;;;;;;2.72;1.15;;;15.30;99.90;;;;;;4997664;28;20046;-79
2022/09/11 06:21:11;;;;;;;8.25;2.20;;;15.40;99.90;;;;;;5008475;28;20051;-78
2022/09/11 06:23:38;;;;;;;3.45;1.20;;;15.40;99.90;;;;;;5000435;28;20058;-78
2022/09/11 06:26:08;;;;;;;6.22;1.65;;;15.40;99.90;;;;;;5003907;28;20046;-79
2022/09/11 06:28:36;;;;;;;1.98;1.20;;;15.40;99.90;;;;;;5018508;28;20072;-78
2022/09/11 06:31:04;;;;;;;5.68;1.30;;;15.50;99.90;;;;;;4998950;28;20050;-78
2022/09/11 06:33:36;;;;;;;3.97;1.50;;;15.60;99.90;;;;;;5005742;28;20558;-79
2022/09/11 06:36:06;;;;;;;3.85;1.45;;;15.60;99.90;;;;;;5002670;28;20049;-79
2022/09/11 06:38:33;;;;;;;6.75;1.55;;;15.70;99.90;;;;;;4998314;28;20511;-78
2022/09/11 06:41:11;;;;;;;7.05;1.42;;;15.70;99.90;;;;;;5006470;28;20450;-77
2022/09/11 06:43:38;;;;;;;6.00;1.65;;;15.70;99.90;;;;;;5005771;28;20057;-78
2022/09/11 06:46:09;;;;;;;3.55;1.63;;;15.70;99.90;;;;;;5003881;28;20050;-77
2022/09/11 06:48:35;;;;;;;6.47;1.65;;;15.70;99.90;;;;;;5001210;28;20053;-78
2022/09/11 06:51:03;;;;;;;4.22;1.65;;;15.70;99.90;;;;;;5006371;28;20320;-78
2022/09/11 06:53:30;;;;;;;5.35;1.77;;;15.70;99.90;;;;;;4995851;28;20057;-77
2022/09/11 06:56:04;;;;;;;2.20;1.13;;;15.60;99.90;;;;;;5007625;28;20070;-78
2022/09/11 06:58:31;;;;;;;4.28;1.13;;;15.60;99.90;;;;;;4999386;28;20054;-78
2022/09/11 07:01:05;;;;;;;7.38;1.40;;;15.60;99.90;;;;;;5003279;28;20125;-78
2022/09/11 07:03:32;;;;;;;5.97;1.20;;;15.60;99.90;;;;;;5002880;28;20054;-78
2022/09/11 07:05:59;;;;;;;6.63;1.10;;;15.60;99.90;;;;;;4998669;28;20108;-78
2022/09/11 07:08:26;;;;;;;3.53;1.38;;;15.70;99.90;;;;;;5005155;28;20050;-78
2022/09/11 07:10:53;;;;;;;4.00;1.10;;;15.70;99.90;;;;;;5000946;28;20054;-77
2022/09/11 07:13:23;;;;;;;4.45;1.05;;;15.80;99.90;;;;;;5007086;28;20041;-78
2022/09/11 07:15:59;;;;;;;4.93;1.10;;;15.80;99.90;;;;;;5003122;28;20047;-78
2022/09/11 07:18:35;;;;;;;3.17;0.82;;;15.90;99.90;;;;;;5004069;28;20050;-78
2022/09/11 07:21:06;;;;;;;6.88;1.30;;;15.90;99.90;;;;;;5009970;28;20126;-78
2022/09/11 07:23:34;;;;;;;6.63;1.35;;;16.00;99.90;;;;;;5004339;28;20440;-78
2022/09/11 07:26:05;;;;;;;5.57;1.30;;;16.00;99.90;;;;;;5000083;28;20058;-78
2022/09/11 07:28:32;;;;;;;6.00;1.20;;;16.10;99.90;;;;;;5003674;28;20049;-80
2022/09/11 07:31:05;;;;;;;4.32;1.00;;;16.20;99.90;;;;;;5015765;28;20496;-79
2022/09/11 07:33:32;;;;;;;1.83;0.90;;;16.20;99.90;;;;;;5011413;28;20064;-80
2022/09/11 07:35:59;;;;;;;4.13;0.98;;;16.30;99.90;;;;;;5014749;28;20048;-79
2022/09/11 07:38:29;;;;;;;3.55;1.08;;;16.30;99.90;;;;;;5013389;28;20060;-80
2022/09/11 07:40:56;;;;;;;;;;;16.30;99.90;;;;;;5018027;28;20043;-79
2022/09/11 07:43:24;;;;;;;1.20;0.82;;;16.40;99.90;;;;;;5008044;28;19964;-80
2022/09/11 07:45:52;;;;;;;5.80;1.02;;;16.40;99.90;;;;;;5019438;28;20107;-80
2022/09/11 07:48:22;;;;;;;;;;;16.40;99.90;;;;;;5014493;28;20080;-79
2022/09/11 07:51:04;;;;;;;3.55;1.00;;;16.50;99.90;;;;;;4814535;28;5909176;-80
2022/09/11 07:53:43;;;;;;;5.10;1.20;;;16.50;99.90;;;;;;5018329;28;20073;-80
2022/09/11 07:56:13;;;;;;;2.28;0.80;;;16.50;99.90;;;;;;5013781;28;20050;-80
2022/09/11 07:58:42;;;;;;;1.73;0.77;;;16.50;99.90;;;;;;5020853;28;20049;-80
2022/09/11 08:01:15;;;;;;;3.00;1.02;;;16.60;99.90;;;;;;5018842;28;20050;-80
2022/09/11 08:03:43;;;;;;;4.13;0.90;;;16.60;99.90;;;;;;5006730;28;20054;-80
2022/09/11 08:06:18;;;;;;;3.30;1.27;;;16.70;99.90;;;;;;5016850;28;20113;-80
2022/09/11 08:08:56;;;;;;;1.27;0.82;;;16.70;99.90;;;;;;5009832;28;20122;-79
2022/09/11 08:11:25;;;;;;;3.85;0.80;;;16.80;99.90;;;;;;5016760;28;20062;-80
2022/09/11 08:13:55;;;;;;;1.77;0.85;;;16.80;99.90;;;;;;5019887;28;20108;-80
2022/09/11 08:16:25;;;;;;;8.65;1.10;;;16.80;99.90;;;;;;5012963;28;20055;-79
2022/09/11 08:18:57;;;;;;;3.72;0.90;;;16.90;99.90;;;;;;5020339;28;20154;-81
2022/09/11 08:21:31;;;;;;;3.10;1.17;;;16.90;99.90;;;;;;5018513;28;20057;-79
2022/09/11 08:24:03;;;;;;;1.08;0.88;;;16.90;99.90;;;;;;5014544;28;20054;-81
2022/09/11 08:26:34;;;;;;;1.80;1.02;;;16.90;99.90;;;;;;5007968;28;20050;-82
2022/09/11 08:29:06;;;;;;;5.53;1.13;;;17.00;99.90;;;;;;5014227;28;20161;-80
2022/09/11 08:31:44;;;;;;;3.00;0.88;;;17.00;99.90;;;;;;5010455;28;20050;-81
2022/09/11 08:34:21;;;;;;;3.40;0.95;;;17.10;99.90;;;;;;5013000;28;20064;-79
2022/09/11 08:36:51;;;;;;;2.58;1.00;;;17.10;99.90;;;;;;5020543;28;20153;-81
2022/09/11 08:39:20;;;;;;;1.80;1.00;;;17.10;99.90;;;;;;5018512;28;20061;-79
2022/09/11 08:41:58;;;;;;;3.40;1.23;;;17.20;99.90;;;;;;5011932;28;20047;-81
2022/09/11 08:44:32;;;;;;;1.65;0.90;;;17.20;99.90;;;;;;5016786;28;20140;-80
2022/09/11 08:47:11;;;;;;;5.93;1.15;;;17.20;99.90;;;;;;5017738;28;20050;-81
2022/09/11 08:49:43;;;;;;;1.60;0.70;;;17.30;99.90;;;;;;5016395;28;20061;-80
2022/09/11 08:52:15;;;;;;;2.42;1.00;;;17.30;99.90;;;;;;5018778;28;20049;-80
2022/09/11 08:54:45;;;;;;;2.88;0.60;;;17.40;99.90;;;;;;5020639;28;20496;-79
2022/09/11 08:57:54;;;;;;;4.65;0.70;;;17.40;99.90;;;;;;5014418;28;20118;-79
2022/09/11 09:00:45;;;;;;;2.60;0.80;;;17.50;99.90;;;;;;5011697;28;20133;-79
2022/09/11 09:03:21;;;;;;;2.70;1.08;;;17.50;99.90;;;;;;5017677;28;20050;-81
2022/09/11 09:06:20;;;;;;;3.88;1.52;;;17.50;99.90;;;;;;5015691;28;20061;-79
2022/09/11 09:08:59;;;;;;;1.38;0.70;;;17.60;99.90;;;;;;5022357;28;20050;-80
2022/09/11 09:11:41;;;;;;;2.83;1.00;;;17.60;99.90;;;;;;5023083;28;20054;-80
2022/09/11 09:14:28;;;;;;;2.92;0.80;;;17.70;99.90;;;;;;5012388;28;20045;-80
2022/09/11 09:17:04;;;;;;;1.95;0.73;;;17.70;99.90;;;;;;5014423;28;20053;-79
2022/09/11 09:20:02;;;;;;;2.10;0.93;;;17.80;99.90;;;;;;5021488;28;20046;-79
2022/09/11 09:22:48;;;;;;;3.35;0.68;;;17.90;99.90;;;;;;5014002;28;20047;-79
2022/09/11 09:25:23;;;;;;;2.95;1.20;;;18.00;99.90;;;;;;5024157;28;20082;-79
2022/09/11 09:28:17;;;;;;;0.80;0.65;;;18.10;99.90;;;;;;5019370;28;20050;-80
2022/09/11 09:30:56;;;;;;;1.40;0.60;;;18.20;99.90;;;;;;5016937;28;20061;-79
2022/09/11 09:33:56;;;;;;;2.77;0.67;;;18.30;99.90;;;;;;5019895;28;20471;-82
2022/09/11 09:36:58;;;;;;;3.47;0.75;;;18.30;99.90;;;;;;5010299;28;20049;-81
2022/09/11 09:39:26;;;;;;;3.58;1.45;;;18.30;99.90;;;;;;5018052;28;20060;-81
2022/09/11 09:41:57;;;;;;;5.07;0.82;;;18.30;99.90;;;;;;5005996;28;20118;-79
2022/09/11 09:44:47;;;;;;;2.33;0.73;;;18.30;99.90;;;;;;5006337;28;20054;-80
2022/09/11 09:47:17;;;;;;;1.70;0.68;;;18.30;99.90;;;;;;5021402;28;20066;-79
2022/09/11 09:49:45;;;;;;;3.55;0.80;;;18.30;99.90;;;;;;5013530;28;20060;-82
2022/09/11 09:52:17;;;;;;;2.30;0.80;;;18.30;99.90;;;;;;5023258;28;20042;-80
2022/09/11 09:54:58;;;;;;;1.48;0.70;;;18.30;99.90;;;;;;5009736;28;20066;-80
2022/09/11 09:57:30;;;;;;;3.85;0.90;;;18.30;99.90;;;;;;5028182;28;20077;-79
2022/09/11 10:00:05;;;;;;;5.35;1.20;;;18.30;99.90;;;;;;5023584;28;20046;-79
2022/09/11 10:02:42;;;;;;;3.85;1.20;;;18.40;99.90;;;;;;5020648;28;20054;-79
2022/09/11 10:05:15;;;;;;;2.08;0.75;;;18.40;99.90;;;;;;5026757;28;20058;-79
2022/09/11 10:07:56;;;;;;;2.92;0.68;;;18.50;99.90;;;;;;5004448;28;20051;-79
2022/09/11 10:10:24;;;;;;;3.83;0.70;;;18.50;99.90;;;;;;5014458;28;20054;-79
2022/09/11 10:12:53;;;;;;;2.60;0.57;;;18.50;99.90;;;;;;5009278;28;20054;-79
2022/09/11 10:15:39;;;;;;;1.38;0.63;;;18.60;99.90;;;;;;5005512;28;20081;-78
2022/09/11 10:18:23;;;;;;;2.97;0.70;;;18.60;99.90;;;;;;5001468;28;20042;-80
2022/09/11 10:20:50;;;;;;;0.75;0.65;;;18.60;99.90;;;;;;5008501;28;20160;-79
2022/09/11 10:23:25;;;;;;;2.05;0.65;;;18.70;99.90;;;;;;5034852;23;20428;-83
2022/09/11 10:25:52;;;;;;;1.60;0.70;;;18.70;99.90;;;;;;5011543;28;20116;-84
2022/09/11 10:28:30;;;;;;;4.65;0.95;;;18.70;99.90;;;;;;5013576;28;20050;-83
2022/09/11 10:31:03;;;;;;;3.35;0.60;;;18.80;99.90;;;;;;5021843;28;20037;-83
2022/09/11 10:33:37;;;;;;;2.08;0.90;;;18.90;99.90;;;;;;5008646;28;20073;-83
2022/09/11 10:36:07;;;;;;;2.28;0.57;;;18.90;99.90;;;;;;5013070;28;20046;-83
2022/09/11 10:38:46;;;;;;;1.15;0.60;;;18.90;99.90;;;;;;5009441;28;20042;-83
2022/09/11 10:41:13;;;;;;;3.28;0.60;;;19.00;99.90;;;;;;5012819;28;20046;-82
2022/09/11 10:43:46;;;;;;;2.17;0.60;;;19.00;99.90;;;;;;5008197;28;20053;-83
2022/09/11 10:46:23;;;;;;;1.60;0.57;;;19.00;99.90;;;;;;5009218;28;20054;-83
2022/09/11 10:48:56;;;;;;;2.42;0.63;;;19.00;99.90;;;;;;5009885;28;20056;-83
2022/09/11 10:51:26;;;;;;;0.50;0.38;;;19.00;99.90;;;;;;5011213;28;20111;-83
2022/09/11 10:54:03;;;;;;;2.10;0.50;;;19.10;99.90;;;;;;5011982;28;20038;-83
2022/09/11 10:56:37;;;;;;;2.22;0.52;;;19.10;99.90;;;;;;5010440;28;20050;-83
2022/09/11 10:59:11;;;;;;;0.95;0.40;;;19.10;99.90;;;;;;5010356;28;20054;-84
2022/09/11 11:01:38;;;;;;;2.35;0.60;;;19.10;99.90;;;;;;5006734;28;20054;-85
2022/09/11 11:04:10;;;;;;;2.38;0.50;;;19.20;99.90;;;;;;5010330;28;20054;-83
2022/09/11 11:06:46;;;;;;;1.77;0.60;;;19.20;99.90;;;;;;5008982;28;20088;-84
2022/09/11 11:09:41;;;;;;;0.90;0.40;;;19.30;99.90;;;;;;5006282;28;20492;-84
2022/09/11 11:12:39;;;;;;;5.22;0.63;;;19.40;99.90;;;;;;5026995;28;20127;-84
2022/09/11 11:15:34;;;;;;;2.45;0.70;;;19.40;99.90;;;;;;5029509;28;20115;-85
2022/09/11 11:18:05;;;;;;;1.50;0.45;;;19.40;99.90;;;;;;5024030;28;20025;-85
2022/09/11 11:20:54;;;;;;;0.98;0.50;;;19.40;99.90;;;;;;5037355;28;20044;-84
2022/09/11 11:23:26;;;;;;;3.60;0.98;;;19.40;99.90;;;;;;5028687;28;20046;-83
2022/09/11 11:26:13;;;;;;;1.10;0.65;;;19.50;99.90;;;;;;5018150;28;20046;-84
2022/09/11 11:28:53;;;;;;;1.20;0.40;;;19.50;99.90;;;;;;5028602;28;20060;-83
2022/09/11 11:31:34;;;;;;;0.35;0.30;;;19.60;99.90;;;;;;5008853;28;20045;-84
2022/09/11 11:34:08;;;;;;;1.38;0.85;;;19.60;99.90;;;;;;5012335;28;20420;-83
2022/09/11 11:36:56;;;;;;;2.47;0.50;;;19.70;99.90;;;;;;5009072;28;20061;-83
2022/09/11 11:39:31;;;;;;;0.77;0.47;;;19.70;99.90;;;;;;5025291;28;20062;-82
2022/09/11 11:41:58;;;;;;;2.15;0.55;;;19.80;99.90;;;;;;5007299;28;20038;-84
2022/09/11 11:44:48;;;;;;;1.65;0.60;;;19.90;99.90;;;;;;5013819;28;20058;-84
2022/09/11 11:47:18;;;;;;;3.00;0.63;;;19.90;99.90;;;;;;4983276;28;20052;-83
2022/09/11 11:50:16;;;;;;;1.63;0.57;;;19.90;99.90;;;;;;5010402;28;20054;-84
2022/09/11 11:53:06;;;;;;;2.42;0.55;;;19.90;99.90;;;;;;5006576;28;20500;-83
2022/09/11 11:55:47;;;;;;;1.63;0.57;;;19.90;99.90;;;;;;5025040;28;20056;-84
2022/09/11 11:58:24;;;;;;;1.95;0.80;;;19.90;99.90;;;;;;5011857;28;20539;-83
2022/09/11 12:00:58;;;;;;;3.30;0.65;;;19.90;99.90;;;;;;5014390;28;20045;-80
2022/09/11 12:03:36;;;;;;;0.93;0.45;;;19.90;99.90;;;;;;5012852;28;20050;-80
2022/09/11 12:06:06;;;;;;;0.95;0.40;;;19.90;99.90;;;;;;5005477;28;20046;-79
2022/09/11 12:08:45;;;;;;;2.28;0.57;;;20.00;99.90;;;;;;5011478;28;20042;-80
2022/09/11 12:11:17;;;;;;;1.27;0.50;;;20.00;99.90;;;;;;5012054;28;20061;-80
2022/09/11 12:13:46;;;;;;;1.73;0.50;;;20.10;99.90;;;;;;5011560;28;20432;-84
2022/09/11 12:16:16;;;;;;;3.95;0.60;;;20.10;99.90;;;;;;5014646;28;20434;-83
2022/09/11 12:19:11;;;;;;;0.50;0.50;;;20.10;99.90;;;;;;5013981;28;20046;-84
2022/09/11 12:22:05;;;;;;;0.93;0.50;;;20.10;99.90;;;;;;5014868;28;20408;-84
2022/09/11 12:24:53;;;;;;;1.10;0.50;;;20.30;99.90;;;;;;5005337;28;20668;-83
2022/09/11 12:27:52;;;;;;;2.40;0.70;;;20.30;99.90;;;;;;5015510;28;20555;-83
2022/09/11 12:30:22;;;;;;;2.30;0.40;;;20.30;99.90;;;;;;5016136;28;20473;-83
2022/09/11 12:32:56;;;;;;;1.67;0.77;;;20.40;99.90;;;;;;5014515;28;20050;-83
2022/09/11 12:35:31;;;;;;;0.55;0.55;;;20.40;99.90;;;;;;5020653;28;20049;-83
2022/09/11 12:38:13;;;;;;;1.67;0.30;;;20.40;99.90;;;;;;5016255;28;20049;-83
2022/09/11 12:40:55;;;;;;;1.00;0.60;;;20.40;99.90;;;;;;5019519;28;20054;-82
2022/09/11 12:43:27;;;;;;;0.90;0.50;;;20.40;99.90;;;;;;5019495;28;20054;-84
2022/09/11 12:45:55;;;;;;;1.08;0.60;;;20.50;99.90;;;;;;5016445;28;20057;-83
2022/09/11 12:48:32;;;;;;;0.85;0.50;;;20.60;99.90;;;;;;5004693;28;20050;-83
2022/09/11 12:50:59;;;;;;;1.98;0.57;;;20.60;99.90;;;;;;5013399;28;20769;-83
2022/09/11 12:53:33;;;;;;;0.60;0.40;;;20.60;99.90;;;;;;5022671;28;20049;-83
2022/09/11 12:56:04;;;;;;;1.25;0.70;;;20.60;99.90;;;;;;5008023;28;20065;-84
2022/09/11 12:58:43;;;;;;;1.40;0.40;;;20.60;99.90;;;;;;5015566;28;20050;-83
2022/09/11 13:01:13;;;;;;;1.55;0.52;;;20.60;99.90;;;;;;5014805;28;20058;-84
2022/09/11 13:03:57;;;;;;;1.23;0.45;;;20.50;99.90;;;;;;5018625;28;20645;-84
2022/09/11 13:06:36;;;;;;;0.60;0.38;;;20.60;99.90;;;;;;5017665;28;20053;-84
2022/09/11 13:09:05;;;;;;;1.25;0.60;;;20.60;99.90;;;;;;5018613;28;20052;-83
2022/09/11 13:11:37;;;;;;;0.52;0.38;;;20.60;99.90;;;;;;5015301;28;20042;-84
2022/09/11 13:14:25;;;;;;;0.52;0.40;;;20.60;99.90;;;;;;5018628;28;20054;-82
2022/09/11 13:16:52;;;;;;;6.00;0.50;;;20.70;99.90;;;;;;5025436;28;20045;-84
2022/09/11 13:19:19;;;;;;;3.03;0.70;;;20.70;99.90;;;;;;5017464;28;20064;-83
2022/09/11 13:21:55;;;;;;;1.80;1.05;;;20.80;99.90;;;;;;5018416;28;20050;-83